Time;durP1;ratioP1;P1;durP2;ratioP2;P2;SDS_P1;SDS_P2;PMS_P1;PMS_P2;Temp;Humidity;BMP_temperature;BMP_pressure;BME280_temperature;BME280_humidity;BME280_pressure;Samples;Min_cycle;Max_cycle;Signal;HPM_P1;HPM_P2
2022/10/07 00:01:11;;;;;;;0.53;0.53;;;12.00;99.90;;;;;;5059304;28;20566;-79
2022/10/07 00:03:37;;;;;;;0.50;0.50;;;12.00;99.90;;;;;;5059347;28;20167;-80
2022/10/07 00:06:10;;;;;;;0.50;0.50;;;12.00;99.90;;;;;;5058122;28;20175;-80
2022/10/07 00:08:37;;;;;;;0.50;0.50;;;12.00;99.90;;;;;;5057771;28;20608;-80
2022/10/07 00:11:11;;;;;;;0.40;0.40;;;12.00;99.90;;;;;;5058497;28;20199;-81
2022/10/07 00:13:39;;;;;;;0.40;0.40;;;12.00;99.90;;;;;;5057864;28;20303;-79
2022/10/07 00:16:10;;;;;;;0.43;0.43;;;12.50;99.90;;;;;;5059706;28;20246;-80
2022/10/07 00:18:36;;;;;;;0.50;0.50;;;12.10;99.90;;;;;;5060009;28;20636;-81
2022/10/07 00:21:05;;;;;;;0.50;0.50;;;12.00;99.90;;;;;;5060266;28;20248;-81
2022/10/07 00:23:30;;;;;;;0.50;0.50;;;11.90;99.90;;;;;;5062340;28;20278;-81
2022/10/07 00:26:02;;;;;;;0.60;0.60;;;11.90;99.90;;;;;;5060847;28;20211;-82
2022/10/07 00:28:29;;;;;;;0.50;0.50;;;12.00;99.90;;;;;;5060737;28;20267;-81
2022/10/07 00:30:59;;;;;;;0.50;0.50;;;11.90;99.90;;;;;;5060334;28;20308;-82
2022/10/07 00:33:25;;;;;;;0.50;0.50;;;12.00;99.90;;;;;;5060003;28;20203;-80
2022/10/07 00:35:51;;;;;;;0.50;0.50;;;12.40;99.90;;;;;;5061715;28;20187;-79
2022/10/07 00:38:17;;;;;;;0.53;0.53;;;12.00;99.90;;;;;;5061299;28;20179;-82
2022/10/07 00:40:42;;;;;;;0.50;0.50;;;12.00;99.90;;;;;;5062377;28;20191;-82
2022/10/07 00:43:30;;;;;;;0.40;0.40;;;12.00;99.90;;;;;;5062867;28;20187;-82
2022/10/07 00:46:20;;;;;;;0.47;0.47;;;12.00;99.90;;;;;;5063267;28;20566;-83
2022/10/07 00:48:45;;;;;;;0.50;0.50;;;12.00;99.90;;;;;;5065635;28;20176;-82
2022/10/07 00:51:15;;;;;;;0.50;0.50;;;12.00;99.90;;;;;;5064834;28;20223;-81
2022/10/07 00:53:45;;;;;;;0.50;0.50;;;12.00;99.90;;;;;;5068174;28;20230;-81
2022/10/07 00:56:11;;;;;;;0.60;0.60;;;12.00;99.90;;;;;;5071890;28;20182;-80
2022/10/07 00:58:40;;;;;;;0.60;0.60;;;12.00;99.90;;;;;;5072528;28;20206;-81
2022/10/07 01:01:06;;;;;;;0.50;0.50;;;12.10;99.90;;;;;;5065211;28;20253;-79
2022/10/07 01:03:34;;;;;;;0.60;0.60;;;12.20;99.90;;;;;;5060230;28;20185;-80
2022/10/07 01:06:01;;;;;;;0.60;0.60;;;12.10;99.90;;;;;;5060619;28;20232;-80
2022/10/07 01:08:27;;;;;;;0.50;0.50;;;12.10;99.90;;;;;;5060335;28;20183;-80
2022/10/07 01:11:24;;;;;;;0.50;0.50;;;12.10;99.90;;;;;;5058044;28;20202;-79
2022/10/07 01:14:02;;;;;;;0.50;0.50;;;12.10;99.90;;;;;;5060800;28;20198;-81
2022/10/07 01:16:46;;;;;;;0.50;0.50;;;12.10;99.90;;;;;;5059534;28;20655;-81
2022/10/07 01:19:16;;;;;;;0.50;0.50;;;12.10;99.90;;;;;;5059427;28;20190;-82
2022/10/07 01:22:24;;;;;;;0.50;0.50;;;12.10;99.90;;;;;;5056937;28;20210;-82
2022/10/07 01:25:16;;;;;;;0.50;0.50;;;12.10;99.90;;;;;;5026596;28;20199;-81
2022/10/07 01:27:49;;;;;;;0.50;0.50;;;12.10;99.90;;;;;;5060144;28;20542;-82
2022/10/07 01:30:17;;;;;;;0.40;0.40;;;12.10;99.90;;;;;;5060099;28;20277;-81
2022/10/07 01:33:03;;;;;;;0.50;0.50;;;12.10;99.90;;;;;;5060552;28;20175;-79
2022/10/07 01:35:34;;;;;;;0.57;0.57;;;12.10;99.90;;;;;;5061829;28;20223;-81
2022/10/07 01:38:04;;;;;;;0.50;0.50;;;12.10;99.90;;;;;;5061446;28;20210;-79
2022/10/07 01:40:38;;;;;;;0.50;0.50;;;12.10;99.90;;;;;;5061572;28;20195;-79
2022/10/07 01:43:04;;;;;;;0.50;0.50;;;12.10;99.90;;;;;;5060575;28;20194;-81
2022/10/07 01:45:34;;;;;;;0.50;0.50;;;12.20;99.90;;;;;;5061569;28;20536;-80
2022/10/07 01:48:00;;;;;;;0.50;0.50;;;12.20;99.90;;;;;;5061884;28;20195;-79
2022/10/07 01:50:28;;;;;;;0.50;0.50;;;12.20;99.90;;;;;;5060893;28;20534;-79
2022/10/07 01:53:01;;;;;;;0.70;0.70;;;12.10;99.90;;;;;;5061783;28;20609;-79
2022/10/07 01:55:54;;;;;;;0.40;0.40;;;12.50;99.90;;;;;;5061661;28;20179;-81
2022/10/07 01:58:48;;;;;;;0.50;0.50;;;12.20;99.90;;;;;;5058795;28;20229;-79
2022/10/07 02:01:25;;;;;;;0.40;0.40;;;12.30;99.90;;;;;;5053785;28;20635;-79
2022/10/07 02:04:01;;;;;;;0.40;0.40;;;12.30;99.90;;;;;;5054220;28;20666;-79
2022/10/07 02:06:44;;;;;;;0.50;0.50;;;12.20;99.90;;;;;;5054733;28;20179;-79
2022/10/07 02:09:24;;;;;;;0.50;0.50;;;12.20;99.90;;;;;;5053619;28;20183;-78
2022/10/07 02:11:56;;;;;;;0.50;0.50;;;12.20;99.90;;;;;;5056901;28;20194;-80
2022/10/07 02:14:30;;;;;;;0.40;0.40;;;12.10;99.90;;;;;;5057264;28;20743;-81
2022/10/07 02:17:04;;;;;;;0.50;0.50;;;12.20;99.90;;;;;;5055643;28;20326;-79
2022/10/07 02:19:38;;;;;;;0.57;0.57;;;12.20;99.90;;;;;;5054808;28;20186;-79
2022/10/07 02:22:06;;;;;;;0.50;0.50;;;12.20;99.90;;;;;;5060023;28;20179;-78
2022/10/07 02:24:34;;;;;;;0.50;0.50;;;12.10;99.90;;;;;;5064592;28;20190;-78
2022/10/07 02:27:04;;;;;;;0.40;0.40;;;12.30;99.90;;;;;;5057007;28;20201;-79
2022/10/07 02:29:32;;;;;;;0.43;0.43;;;12.20;99.90;;;;;;5054857;28;20179;-80
2022/10/07 02:32:02;;;;;;;0.60;0.60;;;12.10;99.90;;;;;;5054827;28;20190;-80
2022/10/07 02:34:29;;;;;;;0.50;0.50;;;12.10;99.90;;;;;;5054520;28;20279;-79
2022/10/07 02:37:01;;;;;;;0.50;0.50;;;12.20;99.90;;;;;;5054730;28;20207;-80
2022/10/07 02:39:28;;;;;;;0.57;0.57;;;12.20;99.90;;;;;;5053732;28;20313;-80
2022/10/07 02:42:20;;;;;;;0.40;0.40;;;12.20;99.90;;;;;;5054345;28;20636;-80
2022/10/07 02:45:01;;;;;;;0.50;0.50;;;12.20;99.90;;;;;;5054828;28;20191;-80
2022/10/07 02:47:41;;;;;;;0.53;0.53;;;12.20;99.90;;;;;;5054529;28;20175;-79
2022/10/07 02:50:09;;;;;;;0.50;0.50;;;12.20;99.90;;;;;;5055877;28;20206;-79
2022/10/07 02:52:37;;;;;;;0.50;0.50;;;12.20;99.90;;;;;;5058983;28;20551;-80
2022/10/07 02:55:09;;;;;;;0.50;0.50;;;12.20;99.90;;;;;;5058335;28;20675;-78
2022/10/07 02:57:43;;;;;;;0.50;0.50;;;12.20;99.90;;;;;;5053659;28;20197;-77
2022/10/07 03:00:09;;;;;;;0.50;0.50;;;12.20;99.90;;;;;;5052681;28;20199;-79
2022/10/07 03:02:43;;;;;;;0.50;0.50;;;12.20;99.90;;;;;;5053707;28;20190;-80
2022/10/07 03:05:11;;;;;;;0.40;0.40;;;12.20;99.90;;;;;;5055643;28;20262;-80
2022/10/07 03:07:37;;;;;;;0.60;0.60;;;12.10;99.90;;;;;;5055985;28;20201;-80
2022/10/07 03:10:06;;;;;;;0.50;0.50;;;12.00;99.90;;;;;;5055588;28;20286;-81
2022/10/07 03:12:32;;;;;;;0.40;0.40;;;12.00;99.90;;;;;;5056321;28;20237;-81
2022/10/07 03:14:57;;;;;;;0.50;0.50;;;12.10;99.90;;;;;;5055223;28;20218;-79
2022/10/07 03:17:23;;;;;;;0.50;0.50;;;12.20;99.90;;;;;;5070261;28;20244;-78
2022/10/07 03:19:48;;;;;;;0.50;0.50;;;12.20;99.90;;;;;;5055521;28;20593;-80
2022/10/07 03:22:14;;;;;;;0.50;0.50;;;12.20;99.90;;;;;;5058632;28;20262;-79
2022/10/07 03:24:40;;;;;;;0.50;0.50;;;12.20;99.90;;;;;;5057044;28;20187;-79
2022/10/07 03:27:06;;;;;;;0.47;0.47;;;12.10;99.90;;;;;;5057176;28;20187;-79
2022/10/07 03:29:34;;;;;;;0.50;0.50;;;12.20;99.90;;;;;;5057058;28;20176;-80
2022/10/07 03:32:00;;;;;;;0.50;0.50;;;12.20;99.90;;;;;;5057122;28;20180;-79
2022/10/07 03:34:26;;;;;;;0.50;0.50;;;12.20;99.90;;;;;;5056511;28;20360;-80
2022/10/07 03:36:53;;;;;;;0.50;0.50;;;12.10;99.90;;;;;;5056824;28;20171;-80
2022/10/07 03:39:18;;;;;;;0.53;0.53;;;12.00;99.90;;;;;;5057061;28;20183;-78
2022/10/07 03:41:44;;;;;;;0.50;0.50;;;12.00;99.90;;;;;;5056984;28;20205;-80
2022/10/07 03:44:10;;;;;;;0.50;0.50;;;12.00;99.90;;;;;;5057048;28;20190;-79
2022/10/07 03:46:35;;;;;;;0.47;0.47;;;12.10;99.90;;;;;;5056891;28;20345;-79
2022/10/07 03:49:01;;;;;;;0.50;0.50;;;12.10;99.90;;;;;;5056665;28;20171;-79
2022/10/07 03:51:26;;;;;;;0.43;0.43;;;12.20;99.90;;;;;;5055476;28;20221;-79
2022/10/07 03:53:56;;;;;;;0.60;0.60;;;12.20;99.90;;;;;;5055860;28;20218;-80
2022/10/07 03:56:22;;;;;;;0.50;0.50;;;12.20;99.90;;;;;;5055892;28;20187;-81
2022/10/07 03:58:47;;;;;;;0.50;0.50;;;12.20;99.90;;;;;;5056896;28;20182;-80
2022/10/07 04:01:13;;;;;;;0.50;0.50;;;12.20;99.90;;;;;;5057060;28;20194;-79
2022/10/07 04:03:39;;;;;;;0.50;0.50;;;12.20;99.90;;;;;;5058404;28;20172;-81
2022/10/07 04:06:05;;;;;;;0.40;0.40;;;12.20;99.90;;;;;;5058366;28;20183;-80
2022/10/07 04:08:32;;;;;;;0.40;0.40;;;12.40;99.90;;;;;;5058562;28;20279;-79
2022/10/07 04:10:58;;;;;;;0.43;0.43;;;12.20;99.90;;;;;;5058073;28;20224;-79
2022/10/07 04:13:24;;;;;;;0.50;0.50;;;12.20;99.90;;;;;;5059170;28;20698;-80
2022/10/07 04:15:49;;;;;;;0.40;0.40;;;12.20;99.90;;;;;;5058964;28;20179;-80
2022/10/07 04:18:15;;;;;;;0.50;0.50;;;12.20;99.90;;;;;;5043568;28;20189;-80
2022/10/07 04:20:41;;;;;;;0.50;0.50;;;12.10;99.90;;;;;;5058135;28;20678;-80
2022/10/07 04:23:07;;;;;;;0.57;0.57;;;12.10;99.90;;;;;;5057475;28;20179;-79
2022/10/07 04:25:32;;;;;;;0.50;0.50;;;12.10;99.90;;;;;;5058113;28;20305;-79
2022/10/07 04:28:06;;;;;;;0.60;0.60;;;12.10;99.90;;;;;;5055932;28;20262;-80
2022/10/07 04:30:37;;;;;;;0.50;0.50;;;12.10;99.90;;;;;;5054881;28;20693;-79
2022/10/07 04:33:04;;;;;;;0.40;0.40;;;12.10;99.90;;;;;;5054186;28;20267;-78
2022/10/07 04:35:30;;;;;;;0.40;0.40;;;12.10;99.90;;;;;;5055663;28;20182;-80
2022/10/07 04:37:55;;;;;;;0.50;0.50;;;12.10;99.90;;;;;;5055296;28;20167;-79
2022/10/07 04:40:22;;;;;;;0.40;0.40;;;12.10;99.90;;;;;;5055294;28;20211;-79
2022/10/07 04:45:35;;;;;;;0.50;0.50;;;12.10;99.90;;;;;;5055231;28;20194;-79
2022/10/07 04:48:04;;;;;;;0.50;0.50;;;12.10;99.90;;;;;;5055596;28;20179;-79
2022/10/07 04:50:31;;;;;;;0.50;0.50;;;12.00;99.90;;;;;;5055084;28;20337;-80
2022/10/07 04:52:56;;;;;;;0.50;0.50;;;12.00;99.90;;;;;;5055598;28;20175;-78
2022/10/07 04:55:22;;;;;;;0.50;0.50;;;12.00;99.90;;;;;;5056041;28;20190;-79
2022/10/07 04:57:48;;;;;;;0.50;0.50;;;12.00;99.90;;;;;;5056183;28;20175;-79
2022/10/07 05:00:14;;;;;;;0.50;0.50;;;12.00;99.90;;;;;;5054834;28;20238;-79
2022/10/07 05:02:40;;;;;;;0.50;0.50;;;12.00;99.90;;;;;;5055877;28;20175;-79
2022/10/07 05:05:06;;;;;;;0.50;0.50;;;12.00;99.90;;;;;;5055899;28;20213;-79
2022/10/07 05:07:31;;;;;;;0.50;0.50;;;11.90;99.90;;;;;;5056701;28;20225;-79
2022/10/07 05:09:57;;;;;;;0.40;0.40;;;11.90;99.90;;;;;;5058612;28;20350;-79
2022/10/07 05:12:24;;;;;;;0.50;0.50;;;11.90;99.90;;;;;;5060885;28;20649;-79
2022/10/07 05:14:50;;;;;;;0.50;0.50;;;11.80;99.90;;;;;;5059153;28;20625;-79
2022/10/07 05:17:15;;;;;;;0.50;0.50;;;11.80;99.90;;;;;;5057956;28;20179;-79
2022/10/07 05:19:41;;;;;;;0.50;0.50;;;11.70;99.90;;;;;;5058123;28;20209;-80
2022/10/07 05:22:06;;;;;;;0.50;0.50;;;11.70;99.90;;;;;;5059783;28;20624;-79
2022/10/07 05:24:32;;;;;;;0.50;0.50;;;11.70;99.90;;;;;;5055993;28;20183;-78
2022/10/07 05:26:57;;;;;;;0.50;0.50;;;11.70;99.90;;;;;;5055198;28;20190;-79
2022/10/07 05:29:23;;;;;;;0.53;0.53;;;11.70;99.90;;;;;;5038652;28;20187;-77
2022/10/07 05:31:49;;;;;;;0.50;0.50;;;11.80;99.90;;;;;;5050214;28;20210;-79
2022/10/07 05:34:15;;;;;;;0.63;0.63;;;11.60;99.90;;;;;;5057759;28;20301;-84
2022/10/07 05:36:42;;;;;;;0.50;0.50;;;11.60;99.90;;;;;;5060616;28;20628;-82
2022/10/07 05:39:09;;;;;;;0.50;0.50;;;11.60;99.90;;;;;;5061713;28;20203;-84
2022/10/07 05:41:34;;;;;;;0.40;0.40;;;11.60;99.90;;;;;;5061708;28;20242;-82
2022/10/07 05:44:00;;;;;;;0.50;0.50;;;11.60;99.90;;;;;;5056987;28;20213;-80
2022/10/07 05:46:26;;;;;;;0.70;0.70;;;11.60;99.90;;;;;;5056882;28;20189;-81
2022/10/07 05:48:52;;;;;;;0.50;0.50;;;11.60;99.90;;;;;;5049401;28;20658;-81
2022/10/07 05:51:22;;;;;;;0.57;0.57;;;11.60;99.90;;;;;;5052677;28;20263;-80
2022/10/07 05:53:48;;;;;;;0.53;0.53;;;11.60;99.90;;;;;;5053927;28;20241;-79
2022/10/07 05:56:20;;;;;;;0.60;0.60;;;11.60;99.90;;;;;;5052630;28;20171;-81
2022/10/07 05:58:50;;;;;;;0.50;0.50;;;11.70;99.90;;;;;;5054049;28;20612;-80
2022/10/07 06:01:21;;;;;;;0.50;0.50;;;11.70;99.90;;;;;;5054469;28;20615;-80
2022/10/07 06:03:51;;;;;;;0.60;0.60;;;11.70;99.90;;;;;;5055431;28;20302;-80
2022/10/07 06:06:17;;;;;;;0.60;0.60;;;11.80;99.90;;;;;;5055380;28;20187;-80
2022/10/07 06:08:42;;;;;;;0.47;0.47;;;12.00;99.90;;;;;;5058356;28;20175;-83
2022/10/07 06:13:55;;;;;;;0.60;0.60;;;12.20;99.90;;;;;;5047554;28;20205;-81
2022/10/07 06:16:22;;;;;;;0.50;0.50;;;12.40;99.90;;;;;;5061092;28;20167;-80
2022/10/07 06:18:51;;;;;;;0.40;0.40;;;12.60;99.90;;;;;;5060718;28;20183;-82
2022/10/07 06:21:17;;;;;;;0.50;0.50;;;12.70;99.90;;;;;;5062779;28;20191;-82
2022/10/07 06:23:42;;;;;;;0.50;0.50;;;12.80;99.90;;;;;;5062282;28;20171;-81
2022/10/07 06:26:13;;;;;;;0.60;0.60;;;12.90;99.90;;;;;;5062280;28;20171;-82
2022/10/07 06:28:40;;;;;;;0.57;0.57;;;12.90;99.90;;;;;;5061125;28;20190;-83
2022/10/07 06:31:14;;;;;;;0.57;0.57;;;13.30;99.90;;;;;;5063946;28;20780;-81
2022/10/07 06:33:40;;;;;;;0.50;0.50;;;13.50;99.90;;;;;;5068546;28;20277;-81
2022/10/07 06:36:12;;;;;;;0.43;0.43;;;13.80;99.90;;;;;;5074875;28;20167;-80
2022/10/07 06:38:42;;;;;;;0.40;0.40;;;14.10;99.90;;;;;;5074194;28;20187;-83
2022/10/07 06:41:08;;;;;;;0.30;0.30;;;14.20;99.90;;;;;;5066021;28;20199;-83
2022/10/07 06:43:34;;;;;;;0.30;0.30;;;14.60;91.10;;;;;;5061474;28;20205;-82
2022/10/07 06:46:02;;;;;;;0.50;0.50;;;15.10;1.00;;;;;;5057417;28;20202;-82
2022/10/07 06:48:29;;;;;;;0.30;0.30;;;15.50;1.00;;;;;;5055145;28;20175;-83
2022/10/07 06:50:58;;;;;;;0.40;0.40;;;15.60;1.00;;;;;;5053891;28;20265;-82
2022/10/07 06:53:25;;;;;;;0.30;0.30;;;16.00;1.00;;;;;;5053969;28;20211;-82
2022/10/07 06:55:53;;;;;;;0.30;0.30;;;16.30;1.00;;;;;;5057925;28;20241;-81
2022/10/07 06:58:20;;;;;;;0.40;0.40;;;16.60;1.00;;;;;;5059090;28;20175;-83
2022/10/07 07:00:49;;;;;;;0.30;0.30;;;16.60;99.90;;;;;;5058706;28;20201;-82
2022/10/07 07:03:15;;;;;;;0.50;0.50;;;16.50;99.90;;;;;;5059275;28;20275;-81
2022/10/07 07:05:42;;;;;;;0.40;0.40;;;16.80;12.50;;;;;;5062184;28;20179;-81
2022/10/07 07:08:07;;;;;;;0.30;0.30;;;16.90;99.90;;;;;;5066129;28;20182;-83
2022/10/07 07:10:41;;;;;;;0.40;0.40;;;17.20;99.90;;;;;;5066335;28;20282;-80
2022/10/07 07:13:08;;;;;;;0.33;0.33;;;17.30;1.00;;;;;;5059171;28;20187;-80
2022/10/07 07:15:34;;;;;;;0.30;0.30;;;17.30;99.90;;;;;;5056564;28;20175;-80
2022/10/07 07:18:00;;;;;;;0.50;0.50;;;17.90;1.00;;;;;;5057996;28;20175;-82
2022/10/07 07:20:33;;;;;;;0.40;0.40;;;17.60;99.90;;;;;;5058419;28;20670;-83
2022/10/07 07:23:11;;;;;;;0.60;0.60;;;18.10;99.90;;;;;;5062183;28;20179;-83
2022/10/07 07:25:38;;;;;;;0.40;0.40;;;18.30;95.70;;;;;;5066123;28;20197;-80
2022/10/07 07:28:05;;;;;;;0.40;0.40;;;18.60;99.90;;;;;;5065085;28;20279;-81
2022/10/07 07:30:31;;;;;;;0.47;0.47;;;18.60;1.00;;;;;;5059782;28;20250;-83
2022/10/07 07:32:57;;;;;;;0.30;0.30;;;18.70;1.00;;;;;;5066310;28;20607;-81
2022/10/07 07:35:24;;;;;;;0.50;0.50;;;18.80;1.00;;;;;;5074214;28;20214;-80
2022/10/07 07:37:50;;;;;;;0.40;0.40;;;18.90;1.00;;;;;;5073253;28;20183;-79
2022/10/07 07:40:17;;;;;;;0.40;0.40;;;19.20;1.00;;;;;;5075848;28;20207;-85
2022/10/07 07:42:45;;;;;;;0.40;0.40;;;19.50;1.00;;;;;;5073754;28;20186;-79
2022/10/07 07:45:11;;;;;;;0.40;0.40;;;19.10;1.00;;;;;;5064663;28;20194;-79
2022/10/07 07:47:36;;;;;;;0.50;0.50;;;19.30;1.00;;;;;;5057865;28;20187;-80
2022/10/07 07:50:04;;;;;;;0.60;0.60;;;19.10;1.00;;;;;;5056853;28;20199;-79
2022/10/07 07:52:30;;;;;;;0.40;0.40;;;19.20;1.00;;;;;;5056728;28;20187;-80
2022/10/07 07:54:57;;;;;;;0.40;0.40;;;19.10;1.00;;;;;;5057472;28;20675;-80
2022/10/07 07:57:24;;;;;;;0.43;0.43;;;19.70;1.00;;;;;;5056140;28;20666;-86
2022/10/07 07:59:49;;;;;;;0.60;0.60;;;20.20;99.90;;;;;;5057182;28;20191;-81
2022/10/07 08:02:15;;;;;;;0.50;0.50;;;20.40;99.90;;;;;;5056775;28;20194;-79
2022/10/07 08:04:41;;;;;;;0.60;0.60;;;20.40;99.90;;;;;;5057404;28;20250;-79
2022/10/07 08:07:07;;;;;;;0.57;0.57;;;20.70;43.60;;;;;;5056603;28;20191;-83
2022/10/07 08:09:32;;;;;;;0.60;0.60;;;20.40;83.70;;;;;;5048345;28;20179;-86
2022/10/07 08:11:58;;;;;;;0.60;0.60;;;20.30;20.40;;;;;;5058049;28;20172;-84
2022/10/07 08:14:23;;;;;;;0.60;0.60;;;20.70;21.40;;;;;;5056760;28;20230;-85
2022/10/07 08:16:50;;;;;;;0.50;0.50;;;20.70;1.00;;;;;;5055962;28;20179;-84
2022/10/07 08:19:15;;;;;;;0.40;0.40;;;20.40;14.30;;;;;;5057064;28;20179;-85
2022/10/07 08:21:41;;;;;;;0.40;0.40;;;20.30;1.00;;;;;;5055972;28;20664;-85
2022/10/07 08:24:08;;;;;;;0.33;0.33;;;20.60;1.00;;;;;;5057048;28;20214;-84
2022/10/07 08:26:36;;;;;;;0.40;0.40;;;20.50;1.00;;;;;;5057510;28;20183;-84
2022/10/07 08:29:02;;;;;;;0.30;0.30;;;20.30;43.90;;;;;;5057368;28;20321;-84
2022/10/07 08:31:28;;;;;;;0.50;0.50;;;20.50;1.00;;;;;;5056220;28;20628;-85
2022/10/07 08:33:57;;;;;;;0.30;0.30;;;20.60;1.00;;;;;;5058348;28;20233;-87
2022/10/07 08:36:25;;;;;;;0.30;0.30;;;20.10;1.60;;;;;;5058398;28;20171;-88
2022/10/07 08:38:51;;;;;;;0.40;0.40;;;20.10;5.50;;;;;;5058331;28;20179;-84
2022/10/07 08:41:41;;;;;;;0.53;0.53;;;20.40;1.00;;;;;;5059731;28;20490;-86
2022/10/07 08:44:16;;;;;;;0.40;0.40;;;20.70;1.00;;;;;;5058187;28;20202;-84
2022/10/07 08:46:53;;;;;;;0.50;0.50;;;21.10;1.00;;;;;;5059627;28;20244;-83
2022/10/07 08:49:31;;;;;;;0.40;0.40;;;21.00;1.00;;;;;;5059383;28;20175;-84
2022/10/07 08:52:20;;;;;;;0.40;0.40;;;21.40;1.00;;;;;;5061283;28;20187;-83
2022/10/07 08:54:46;;;;;;;0.40;0.40;;;21.60;1.00;;;;;;5033547;28;20221;-82
2022/10/07 08:57:20;;;;;;;0.40;0.40;;;21.10;1.00;;;;;;5060321;28;20191;-84
2022/10/07 08:59:53;;;;;;;0.47;0.47;;;21.20;1.00;;;;;;5056281;28;20182;-87
2022/10/07 09:02:32;;;;;;;0.50;0.50;;;20.90;1.00;;;;;;5055936;28;20198;-85
2022/10/07 09:05:11;;;;;;;0.40;0.40;;;21.40;1.00;;;;;;5060338;28;20632;-84
2022/10/07 09:07:44;;;;;;;0.40;0.40;;;21.40;1.00;;;;;;5054435;28;20232;-86
2022/10/07 09:10:09;;;;;;;0.40;0.40;;;21.00;1.00;;;;;;5053177;28;20203;-82
2022/10/07 09:12:44;;;;;;;0.50;0.50;;;20.90;1.00;;;;;;5053286;28;20179;-83
2022/10/07 09:15:38;;;;;;;0.30;0.30;;;20.90;1.00;;;;;;5053000;28;20241;-85
2022/10/07 09:18:27;;;;;;;0.40;0.40;;;20.80;1.00;;;;;;5052069;28;20182;-84
2022/10/07 09:20:54;;;;;;;0.50;0.50;;;21.20;1.00;;;;;;5060591;28;20191;-84
2022/10/07 09:23:24;;;;;;;0.40;0.40;;;21.10;1.00;;;;;;5061948;28;20195;-84
2022/10/07 09:25:50;;;;;;;0.40;0.40;;;21.20;1.00;;;;;;5061113;28;20182;-85
2022/10/07 09:28:19;;;;;;;0.40;0.40;;;21.70;1.00;;;;;;5058617;28;20540;-85
2022/10/07 09:30:45;;;;;;;0.50;0.50;;;21.70;1.00;;;;;;5061585;28;20244;-86
2022/10/07 09:33:18;;;;;;;0.60;0.60;;;21.60;1.00;;;;;;5057975;28;20191;-86
2022/10/07 09:35:54;;;;;;;0.60;0.60;;;22.40;1.00;;;;;;5057179;28;20190;-84
2022/10/07 09:38:34;;;;;;;0.40;0.40;;;22.40;1.00;;;;;;5052229;28;20175;-86
2022/10/07 09:41:16;;;;;;;0.50;0.50;;;22.90;1.00;;;;;;5056063;28;20274;-87
2022/10/07 09:43:56;;;;;;;0.57;0.57;;;22.70;1.00;;;;;;5046511;28;20187;-88
2022/10/07 09:46:46;;;;;;;0.50;0.50;;;22.40;1.00;;;;;;5056342;28;20187;-84
2022/10/07 09:49:27;;;;;;;0.50;0.50;;;22.70;1.00;;;;;;5057641;28;20179;-84
2022/10/07 09:52:01;;;;;;;0.60;0.60;;;22.20;1.00;;;;;;5055231;28;20213;-89
2022/10/07 09:54:29;;;;;;;0.50;0.50;;;22.40;1.00;;;;;;5049824;28;20218;-84
2022/10/07 09:56:57;;;;;;;0.60;0.60;;;22.40;1.00;;;;;;5056100;28;20168;-84
2022/10/07 09:59:30;;;;;;;0.50;0.50;;;22.50;1.00;;;;;;5053683;28;20218;-84
2022/10/07 10:02:14;;;;;;;0.60;0.60;;;22.80;1.00;;;;;;5047006;28;20176;-82
2022/10/07 10:04:49;;;;;;;0.50;0.50;;;22.80;1.00;;;;;;5072421;28;20186;-82
2022/10/07 10:07:23;;;;;;;0.60;0.60;;;22.30;1.00;;;;;;5057707;28;20186;-79
2022/10/07 10:10:16;;;;;;;0.60;0.60;;;21.90;1.00;;;;;;5060485;28;20226;-80
2022/10/07 10:12:47;;;;;;;0.50;0.50;;;23.20;1.00;;;;;;5051761;28;20182;-83
2022/10/07 10:15:22;;;;;;;0.50;0.50;;;22.30;1.00;;;;;;5054214;28;20218;-80
2022/10/07 10:17:48;;;;;;;0.50;0.50;;;22.40;1.00;;;;;;5046577;28;20186;-82
2022/10/07 10:20:23;;;;;;;0.70;0.70;;;22.20;1.00;;;;;;5049415;28;20280;-83
2022/10/07 10:22:52;;;;;;;0.60;0.60;;;23.20;1.00;;;;;;5067022;28;20182;-82
2022/10/07 10:28:17;;;;;;;0.60;0.60;;;22.70;1.00;;;;;;5049471;28;20213;-81
2022/10/07 10:30:54;;;;;;;0.50;0.50;;;23.20;1.00;;;;;;5057202;28;20660;-82
2022/10/07 10:33:32;;;;;;;0.60;0.60;;;23.80;1.00;;;;;;5058170;28;20186;-81
2022/10/07 10:36:00;;;;;;;0.60;0.60;;;23.40;1.00;;;;;;5058322;28;20270;-82
2022/10/07 10:38:26;;;;;;;0.53;0.53;;;23.30;1.00;;;;;;5048146;28;20175;-81
2022/10/07 10:41:10;;;;;;;0.60;0.60;;;22.90;1.00;;;;;;5047537;28;20249;-82
2022/10/07 10:44:23;;;;;;;0.40;0.40;;;23.40;1.00;;;;;;5051003;28;20182;-82
2022/10/07 10:46:57;;;;;;;0.60;0.60;;;24.70;1.00;;;;;;5015841;28;20212;-83
2022/10/07 10:49:32;;;;;;;0.70;0.70;;;24.70;1.00;;;;;;5015152;28;20183;-79
2022/10/07 10:52:33;;;;;;;0.70;0.70;;;24.50;1.00;;;;;;5045850;28;20650;-83
2022/10/07 10:55:34;;;;;;;0.67;0.67;;;24.10;1.00;;;;;;5057252;28;20226;-78
2022/10/07 10:58:17;;;;;;;0.50;0.50;;;24.00;1.00;;;;;;5051273;28;20273;-85
2022/10/07 11:01:01;;;;;;;0.63;0.63;;;24.20;1.00;;;;;;5060568;28;20667;-83
2022/10/07 11:03:46;;;;;;;0.60;0.60;;;24.00;1.00;;;;;;5055879;28;20198;-82
2022/10/07 11:06:15;;;;;;;0.50;0.50;;;23.00;1.00;;;;;;5055949;28;20202;-80
2022/10/07 11:08:41;;;;;;;0.60;0.60;;;23.10;1.00;;;;;;5056350;28;20183;-83
2022/10/07 11:11:20;;;;;;;0.50;0.50;;;23.00;1.00;;;;;;5057291;28;20207;-85
2022/10/07 11:13:53;;;;;;;0.70;0.70;;;23.20;1.00;;;;;;5058613;28;20203;-85
2022/10/07 11:16:40;;;;;;;0.50;0.50;;;23.80;1.00;;;;;;5058460;28;20206;-83
2022/10/07 11:19:22;;;;;;;0.50;0.50;;;23.60;1.00;;;;;;5057144;28;20206;-85
2022/10/07 11:21:58;;;;;;;0.50;0.50;;;23.80;1.00;;;;;;5061710;28;20226;-82
2022/10/07 11:24:37;;;;;;;0.50;0.50;;;23.30;1.00;;;;;;5071030;28;20191;-88
2022/10/07 11:27:17;;;;;;;0.50;0.50;;;23.60;1.00;;;;;;5069382;28;20175;-85
2022/10/07 11:30:15;;;;;;;0.50;0.50;;;23.20;1.00;;;;;;5059050;28;20186;-83
2022/10/07 11:32:54;;;;;;;0.50;0.50;;;23.50;1.00;;;;;;5059747;28;20181;-85
2022/10/07 11:35:41;;;;;;;0.53;0.53;;;23.60;1.00;;;;;;5059196;28;20213;-83
2022/10/07 11:38:11;;;;;;;0.50;0.50;;;23.80;1.00;;;;;;5057818;28;20648;-85
2022/10/07 11:40:50;;;;;;;0.50;0.50;;;23.90;1.00;;;;;;5056244;28;20218;-87
2022/10/07 11:43:24;;;;;;;0.50;0.50;;;23.00;1.00;;;;;;5058326;28;20183;-84
2022/10/07 11:46:00;;;;;;;0.50;0.50;;;22.50;1.00;;;;;;5059076;28;20178;-85
2022/10/07 11:48:48;;;;;;;0.50;0.50;;;22.90;1.00;;;;;;5057864;28;20193;-85
2022/10/07 11:51:33;;;;;;;0.50;0.50;;;23.60;1.00;;;;;;5056823;28;20199;-84
2022/10/07 11:54:01;;;;;;;0.40;0.40;;;23.00;1.00;;;;;;5056960;28;20211;-83
2022/10/07 11:56:36;;;;;;;0.50;0.50;;;23.10;1.00;;;;;;5057700;28;20187;-83
2022/10/07 11:59:04;;;;;;;0.50;0.50;;;22.70;1.00;;;;;;5056932;28;20182;-80
2022/10/07 12:01:33;;;;;;;0.40;0.40;;;22.60;1.00;;;;;;5055319;28;20626;-82
2022/10/07 12:04:21;;;;;;;0.30;0.30;;;22.20;1.00;;;;;;5055853;28;20225;-82
2022/10/07 12:07:35;;;;;;;0.40;0.40;;;22.80;1.00;;;;;;5051598;28;20679;-82
2022/10/07 12:10:01;;;;;;;0.30;0.30;;;22.90;1.00;;;;;;4982144;28;20210;-85
2022/10/07 12:12:41;;;;;;;0.40;0.40;;;23.60;1.00;;;;;;5037296;28;20279;-86
2022/10/07 12:15:24;;;;;;;0.40;0.40;;;23.50;1.00;;;;;;5038039;28;20819;-84
2022/10/07 12:18:16;;;;;;;0.40;0.40;;;23.80;1.00;;;;;;5036180;28;20171;-84
2022/10/07 12:20:51;;;;;;;0.47;0.47;;;22.80;1.00;;;;;;5032586;28;20664;-86
2022/10/07 12:23:24;;;;;;;0.30;0.30;;;22.90;1.00;;;;;;5037967;28;20588;-86
2022/10/07 12:25:57;;;;;;;0.40;0.40;;;23.20;1.00;;;;;;5038979;28;20180;-83
2022/10/07 12:28:25;;;;;;;0.50;0.50;;;22.80;1.00;;;;;;5036628;28;20180;-82
2022/10/07 12:30:53;;;;;;;0.50;0.50;;;24.50;1.00;;;;;;5036061;28;20204;-82
2022/10/07 12:33:36;;;;;;;0.40;0.40;;;23.50;1.00;;;;;;5036300;28;20259;-83
2022/10/07 12:36:27;;;;;;;0.50;0.50;;;22.60;1.00;;;;;;5037390;28;20175;-82
2022/10/07 12:38:55;;;;;;;0.40;0.40;;;23.30;1.00;;;;;;5036819;28;20164;-83
2022/10/07 12:41:37;;;;;;;0.40;0.40;;;23.80;1.00;;;;;;5035557;28;20200;-82
2022/10/07 12:44:23;;;;;;;0.40;0.40;;;23.00;1.00;;;;;;5036499;28;20191;-85
2022/10/07 12:47:09;;;;;;;0.43;0.43;;;23.80;1.00;;;;;;5035950;28;20541;-83
2022/10/07 12:49:48;;;;;;;0.40;0.40;;;23.20;1.00;;;;;;5035432;28;20265;-82
2022/10/07 12:52:41;;;;;;;0.40;0.40;;;22.90;1.00;;;;;;5035929;28;20179;-82
2022/10/07 12:55:18;;;;;;;0.33;0.33;;;23.40;1.00;;;;;;5036673;28;20840;-83
2022/10/07 12:57:51;;;;;;;0.43;0.43;;;23.30;1.00;;;;;;5037122;28;20246;-84
2022/10/07 13:00:24;;;;;;;0.37;0.37;;;23.50;1.00;;;;;;5037348;28;20210;-84
2022/10/07 13:02:52;;;;;;;0.60;0.60;;;23.00;1.00;;;;;;5037125;28;20563;-83
2022/10/07 13:05:39;;;;;;;0.50;0.50;;;23.80;1.00;;;;;;5037860;28;20176;-82
2022/10/07 13:08:35;;;;;;;0.40;0.40;;;22.20;1.00;;;;;;5037089;28;20175;-81
2022/10/07 13:11:28;;;;;;;0.30;0.30;;;22.00;1.00;;;;;;5037171;28;20253;-82
2022/10/07 13:14:30;;;;;;;0.40;0.40;;;22.20;1.00;;;;;;5037126;28;20713;-84
2022/10/07 13:17:40;;;;;;;0.40;0.40;;;21.70;1.00;;;;;;5032106;28;20715;-85
2022/10/07 13:20:18;;;;;;;0.30;0.30;;;21.90;1.00;;;;;;5023843;28;20222;-85
2022/10/07 13:22:46;;;;;;;0.30;0.30;;;22.10;1.00;;;;;;5058672;28;20179;-84
2022/10/07 13:25:13;;;;;;;0.40;0.40;;;22.60;1.00;;;;;;5057725;28;20175;-83